Terminal Aerodrome Forecast
Issued by NWS

Home | Current Version | Previous Version | Text Only | Print | Product List | Glossary On
Versions: 1 2 3 4 5 6 7 8 9 10 11 12 13 14 15 16 17
000
FTAK31 PANC 181130
TAFADU
TAF
PADU 181130Z 1812/1912 11005KT P6SM BKN040
     FM181600 14009KT P6SM SCT040
     FM182200 15017G25KT P6SM -SHSN SCT030 BKN050
     FM190300 16014KT 6SM -SN BR BKN025
     FM190800 25012G22KT 3SM -SN BKN015 OVC025=

USA.gov is the U.S. government's official web portal to all federal, state and local government web resources and services.